sensor_id;sensor_type;location;lat;lon;timestamp;pressure;altitude;pressure_sealevel;temperature;humidity
11912;BME280;6016;41.928;25.556;2023-04-01T00:01:28;98140.22;;;12.30;65.74
11912;BME280;6016;41.928;25.556;2023-04-01T00:03:55;98247.06;;;12.99;65.27
11912;BME280;6016;41.928;25.556;2023-04-01T00:06:22;98179.97;;;12.45;66.53
11912;BME280;6016;41.928;25.556;2023-04-01T00:08:49;98245.84;;;12.87;66.00
11912;BME280;6016;41.928;25.556;2023-04-01T00:11:19;98241.13;;;12.97;65.86
11912;BME280;6016;41.928;25.556;2023-04-01T00:13:46;98240.66;;;12.93;66.30
11912;BME280;6016;41.928;25.556;2023-04-01T00:16:14;98235.38;;;12.93;66.13
11912;BME280;6016;41.928;25.556;2023-04-01T00:18:41;98238.66;;;12.95;66.02
11912;BME280;6016;41.928;25.556;2023-04-01T00:21:08;98246.19;;;13.07;66.63
11912;BME280;6016;41.928;25.556;2023-04-01T00:23:35;98237.00;;;12.94;66.84
11912;BME280;6016;41.928;25.556;2023-04-01T00:26:03;98215.28;;;12.84;66.44
11912;BME280;6016;41.928;25.556;2023-04-01T00:28:33;98231.06;;;12.92;66.86
11912;BME280;6016;41.928;25.556;2023-04-01T00:31:05;98166.13;;;12.35;66.63
11912;BME280;6016;41.928;25.556;2023-04-01T00:33:31;98223.22;;;12.84;66.68
11912;BME280;6016;41.928;25.556;2023-04-01T00:36:06;98160.63;;;12.45;67.36
11912;BME280;6016;41.928;25.556;2023-04-01T00:38:34;98220.00;;;12.89;67.00
11912;BME280;6016;41.928;25.556;2023-04-01T00:41:00;98163.84;;;12.55;66.66
11912;BME280;6016;41.928;25.556;2023-04-01T00:43:27;98164.63;;;12.64;66.89
11912;BME280;6016;41.928;25.556;2023-04-01T00:45:55;98206.56;;;12.99;66.18
11912;BME280;6016;41.928;25.556;2023-04-01T00:48:25;98206.38;;;13.00;66.97
11912;BME280;6016;41.928;25.556;2023-04-01T00:50:58;98207.38;;;12.99;66.73
11912;BME280;6016;41.928;25.556;2023-04-01T00:53:26;98208.72;;;12.95;66.76
11912;BME280;6016;41.928;25.556;2023-04-01T00:55:58;98139.06;;;12.56;66.27
11912;BME280;6016;41.928;25.556;2023-04-01T00:58:27;98207.56;;;12.98;66.55
11912;BME280;6016;41.928;25.556;2023-04-01T01:00:58;98129.19;;;12.50;66.57
11912;BME280;6016;41.928;25.556;2023-04-01T01:03:26;98196.31;;;12.95;66.74
11912;BME280;6016;41.928;25.556;2023-04-01T01:06:15;98200.84;;;12.87;66.17
11912;BME280;6016;41.928;25.556;2023-04-01T01:09:00;98164.88;;;12.77;66.68
11912;BME280;6016;41.928;25.556;2023-04-01T01:11:37;98204.50;;;13.09;66.83
11912;BME280;6016;41.928;25.556;2023-04-01T01:14:12;98128.13;;;12.59;65.91
11912;BME280;6016;41.928;25.556;2023-04-01T01:16:46;98210.81;;;13.23;66.27
11912;BME280;6016;41.928;25.556;2023-04-01T01:19:33;98208.75;;;13.33;65.80
11912;BME280;6016;41.928;25.556;2023-04-01T01:22:22;98180.22;;;13.20;65.02
11912;BME280;6016;41.928;25.556;2023-04-01T01:25:04;98218.16;;;13.36;64.90
11912;BME280;6016;41.928;25.556;2023-04-01T01:27:38;98196.56;;;13.24;64.84
11912;BME280;6016;41.928;25.556;2023-04-01T01:30:21;98219.75;;;13.45;64.57
11912;BME280;6016;41.928;25.556;2023-04-01T01:33:16;98169.81;;;13.19;64.51
11912;BME280;6016;41.928;25.556;2023-04-01T01:35:48;98214.75;;;13.50;64.18
11912;BME280;6016;41.928;25.556;2023-04-01T01:38:18;98216.94;;;13.47;65.03
11912;BME280;6016;41.928;25.556;2023-04-01T01:40:49;98203.44;;;13.33;64.21
11912;BME280;6016;41.928;25.556;2023-04-01T01:43:21;98166.16;;;13.20;64.91
11912;BME280;6016;41.928;25.556;2023-04-01T01:45:54;98167.28;;;13.26;64.00
11912;BME280;6016;41.928;25.556;2023-04-01T01:48:23;98214.53;;;13.52;64.75
11912;BME280;6016;41.928;25.556;2023-04-01T01:50:52;98212.91;;;13.51;64.76
11912;BME280;6016;41.928;25.556;2023-04-01T01:53:20;98219.84;;;13.52;64.26
11912;BME280;6016;41.928;25.556;2023-04-01T01:55:47;98220.84;;;13.51;64.32
11912;BME280;6016;41.928;25.556;2023-04-01T01:58:17;98221.72;;;13.43;64.52
11912;BME280;6016;41.928;25.556;2023-04-01T02:00:49;98087.56;;;12.44;65.66
11912;BME280;6016;41.928;25.556;2023-04-01T02:03:17;98215.41;;;13.29;65.69
11912;BME280;6016;41.928;25.556;2023-04-01T02:05:47;98179.56;;;13.03;65.56
11912;BME280;6016;41.928;25.556;2023-04-01T02:08:21;98222.06;;;13.25;64.93
11912;BME280;6016;41.928;25.556;2023-04-01T02:10:55;98221.72;;;13.28;65.67
11912;BME280;6016;41.928;25.556;2023-04-01T02:13:27;98228.47;;;13.31;65.69
11912;BME280;6016;41.928;25.556;2023-04-01T02:15:59;98228.28;;;13.32;65.46
11912;BME280;6016;41.928;25.556;2023-04-01T02:18:31;98213.22;;;13.33;64.70
11912;BME280;6016;41.928;25.556;2023-04-01T02:21:00;98164.91;;;12.92;64.93
11912;BME280;6016;41.928;25.556;2023-04-01T02:23:29;98162.03;;;12.79;64.76
11912;BME280;6016;41.928;25.556;2023-04-01T02:25:56;97978.34;;;11.96;65.44
11912;BME280;6016;41.928;25.556;2023-04-01T02:28:23;98174.13;;;13.20;65.19
11912;BME280;6016;41.928;25.556;2023-04-01T02:30:51;98117.09;;;12.56;64.70
11912;BME280;6016;41.928;25.556;2023-04-01T02:33:19;98152.69;;;12.91;64.86
11912;BME280;6016;41.928;25.556;2023-04-01T02:35:47;98189.53;;;13.16;65.09
11912;BME280;6016;41.928;25.556;2023-04-01T02:38:14;98169.41;;;13.07;65.66
11912;BME280;6016;41.928;25.556;2023-04-01T02:40:48;98185.19;;;13.23;65.55
11912;BME280;6016;41.928;25.556;2023-04-01T02:43:15;98177.03;;;13.10;64.90
11912;BME280;6016;41.928;25.556;2023-04-01T02:45:43;98193.13;;;13.23;65.18
11912;BME280;6016;41.928;25.556;2023-04-01T02:48:09;98103.31;;;12.60;65.09
11912;BME280;6016;41.928;25.556;2023-04-01T02:50:38;98188.16;;;13.20;65.48
11912;BME280;6016;41.928;25.556;2023-04-01T02:53:05;98181.22;;;13.19;64.63
11912;BME280;6016;41.928;25.556;2023-04-01T02:55:32;98101.91;;;12.73;64.34
11912;BME280;6016;41.928;25.556;2023-04-01T02:58:01;98173.75;;;13.23;64.88
11912;BME280;6016;41.928;25.556;2023-04-01T03:00:28;98176.22;;;13.25;64.37
11912;BME280;6016;41.928;25.556;2023-04-01T03:02:55;98173.75;;;13.23;64.52
11912;BME280;6016;41.928;25.556;2023-04-01T03:05:22;98074.34;;;12.67;64.55
11912;BME280;6016;41.928;25.556;2023-04-01T03:07:49;98139.97;;;13.10;63.73
11912;BME280;6016;41.928;25.556;2023-04-01T03:10:16;98135.09;;;12.99;63.92
11912;BME280;6016;41.928;25.556;2023-04-01T03:12:42;98133.25;;;12.99;64.24
11912;BME280;6016;41.928;25.556;2023-04-01T03:15:14;98167.75;;;13.29;63.71
11912;BME280;6016;41.928;25.556;2023-04-01T03:17:41;98113.06;;;12.98;63.54
11912;BME280;6016;41.928;25.556;2023-04-01T03:20:10;98123.28;;;12.86;64.09
11912;BME280;6016;41.928;25.556;2023-04-01T03:22:37;98157.16;;;13.29;64.01
11912;BME280;6016;41.928;25.556;2023-04-01T03:25:06;98108.00;;;12.73;64.63
11912;BME280;6016;41.928;25.556;2023-04-01T03:27:33;98156.94;;;13.16;64.90
11912;BME280;6016;41.928;25.556;2023-04-01T03:30:00;98165.22;;;13.13;65.51
11912;BME280;6016;41.928;25.556;2023-04-01T03:32:30;98100.50;;;12.62;65.49
11912;BME280;6016;41.928;25.556;2023-04-01T03:34:56;97991.03;;;12.01;65.66
11912;BME280;6016;41.928;25.556;2023-04-01T03:37:24;98036.03;;;12.40;65.40
11912;BME280;6016;41.928;25.556;2023-04-01T03:39:51;98133.66;;;13.11;65.85
11912;BME280;6016;41.928;25.556;2023-04-01T03:42:18;98137.22;;;13.18;65.52
11912;BME280;6016;41.928;25.556;2023-04-01T03:44:45;98141.50;;;13.19;65.38
11912;BME280;6016;41.928;25.556;2023-04-01T03:47:11;98146.47;;;13.22;65.16
11912;BME280;6016;41.928;25.556;2023-04-01T03:49:40;98048.78;;;12.59;65.11
11912;BME280;6016;41.928;25.556;2023-04-01T03:52:09;98136.72;;;13.00;64.98
11912;BME280;6016;41.928;25.556;2023-04-01T03:54:36;98148.81;;;13.17;65.02
11912;BME280;6016;41.928;25.556;2023-04-01T03:57:03;98142.88;;;13.15;64.92
11912;BME280;6016;41.928;25.556;2023-04-01T03:59:30;98131.59;;;12.98;64.93
11912;BME280;6016;41.928;25.556;2023-04-01T04:01:57;98119.28;;;12.90;65.21
11912;BME280;6016;41.928;25.556;2023-04-01T04:04:24;98156.66;;;13.11;64.35
11912;BME280;6016;41.928;25.556;2023-04-01T04:06:53;98110.41;;;12.83;64.58
11912;BME280;6016;41.928;25.556;2023-04-01T04:09:19;98136.63;;;13.08;64.68
11912;BME280;6016;41.928;25.556;2023-04-01T04:11:46;98139.00;;;13.03;64.38
11912;BME280;6016;41.928;25.556;2023-04-01T04:14:13;98160.34;;;13.01;64.79
11912;BME280;6016;41.928;25.556;2023-04-01T04:16:40;98157.22;;;12.83;65.43
11912;BME280;6016;41.928;25.556;2023-04-01T04:19:07;98156.81;;;12.71;65.93
11912;BME280;6016;41.928;25.556;2023-04-01T04:21:34;98154.63;;;12.74;66.10
11912;BME280;6016;41.928;25.556;2023-04-01T04:24:02;98159.47;;;12.71;65.43
11912;BME280;6016;41.928;25.556;2023-04-01T04:26:29;98153.88;;;12.65;66.31
11912;BME280;6016;41.928;25.556;2023-04-01T04:28:56;98140.69;;;12.57;66.09
11912;BME280;6016;41.928;25.556;2023-04-01T04:31:25;98165.69;;;12.78;66.13
11912;BME280;6016;41.928;25.556;2023-04-01T04:33:52;98149.75;;;12.63;66.00
11912;BME280;6016;41.928;25.556;2023-04-01T04:36:19;98170.09;;;12.86;65.95
11912;BME280;6016;41.928;25.556;2023-04-01T04:38:47;98156.06;;;12.85;65.55
11912;BME280;6016;41.928;25.556;2023-04-01T04:41:16;98145.88;;;12.74;66.01
11912;BME280;6016;41.928;25.556;2023-04-01T04:43:49;98063.81;;;12.12;66.37
11912;BME280;6016;41.928;25.556;2023-04-01T04:46:16;98123.75;;;12.51;66.14
11912;BME280;6016;41.928;25.556;2023-04-01T04:48:43;98040.72;;;11.82;66.07
11912;BME280;6016;41.928;25.556;2023-04-01T04:51:13;98147.94;;;12.40;66.34
11912;BME280;6016;41.928;25.556;2023-04-01T04:53:44;98142.09;;;12.45;66.21
11912;BME280;6016;41.928;25.556;2023-04-01T04:56:11;98159.34;;;12.41;66.71
11912;BME280;6016;41.928;25.556;2023-04-01T04:58:39;98158.25;;;12.58;65.03
11912;BME280;6016;41.928;25.556;2023-04-01T05:01:08;98143.66;;;12.39;66.06
11912;BME280;6016;41.928;25.556;2023-04-01T05:03:34;98133.00;;;12.47;66.24
11912;BME280;6016;41.928;25.556;2023-04-01T05:06:01;98151.81;;;12.76;65.83
11912;BME280;6016;41.928;25.556;2023-04-01T05:08:28;98153.69;;;12.90;65.02
11912;BME280;6016;41.928;25.556;2023-04-01T05:10:55;98148.97;;;13.01;64.89
11912;BME280;6016;41.928;25.556;2023-04-01T05:13:22;98124.53;;;12.75;65.26
11912;BME280;6016;41.928;25.556;2023-04-01T05:15:50;98091.28;;;12.34;65.70
11912;BME280;6016;41.928;25.556;2023-04-01T05:18:17;98131.88;;;12.88;65.44
11912;BME280;6016;41.928;25.556;2023-04-01T05:20:47;98120.09;;;12.91;65.04
11912;BME280;6016;41.928;25.556;2023-04-01T05:23:14;98125.88;;;12.71;65.98
11912;BME280;6016;41.928;25.556;2023-04-01T05:25:41;98130.06;;;12.65;66.44
11912;BME280;6016;41.928;25.556;2023-04-01T05:28:08;98129.16;;;12.73;66.06
11912;BME280;6016;41.928;25.556;2023-04-01T05:30:35;98127.63;;;12.79;66.76
11912;BME280;6016;41.928;25.556;2023-04-01T05:33:03;98098.38;;;12.57;66.54
11912;BME280;6016;41.928;25.556;2023-04-01T05:35:30;98130.47;;;12.77;66.92
11912;BME280;6016;41.928;25.556;2023-04-01T05:37:57;98121.34;;;12.80;66.53
11912;BME280;6016;41.928;25.556;2023-04-01T05:40:24;98112.66;;;12.71;65.92
11912;BME280;6016;41.928;25.556;2023-04-01T05:42:50;97992.94;;;12.16;66.07
11912;BME280;6016;41.928;25.556;2023-04-01T05:45:17;98068.94;;;12.75;65.97
11912;BME280;6016;41.928;25.556;2023-04-01T05:47:44;98113.28;;;13.12;66.51
11912;BME280;6016;41.928;25.556;2023-04-01T05:50:12;98110.47;;;13.28;66.58
11912;BME280;6016;41.928;25.556;2023-04-01T05:52:39;98064.09;;;13.02;66.02
11912;BME280;6016;41.928;25.556;2023-04-01T05:55:07;98113.31;;;13.42;65.04
11912;BME280;6016;41.928;25.556;2023-04-01T05:57:34;98121.06;;;13.43;65.18
11912;BME280;6016;41.928;25.556;2023-04-01T06:00:00;98114.34;;;13.56;65.14
11912;BME280;6016;41.928;25.556;2023-04-01T06:02:27;98100.81;;;13.50;65.56
11912;BME280;6016;41.928;25.556;2023-04-01T06:05:02;98135.06;;;13.82;64.10
11912;BME280;6016;41.928;25.556;2023-04-01T06:07:31;98131.84;;;13.87;63.15
11912;BME280;6016;41.928;25.556;2023-04-01T06:09:59;98123.22;;;14.00;63.45
11912;BME280;6016;41.928;25.556;2023-04-01T06:12:37;98107.94;;;14.02;63.33
11912;BME280;6016;41.928;25.556;2023-04-01T06:15:20;98100.41;;;14.20;63.40
11912;BME280;6016;41.928;25.556;2023-04-01T06:18:07;98108.06;;;14.30;62.30
11912;BME280;6016;41.928;25.556;2023-04-01T06:20:46;98124.06;;;14.59;62.61
11912;BME280;6016;41.928;25.556;2023-04-01T06:23:43;98117.69;;;14.75;61.90
11912;BME280;6016;41.928;25.556;2023-04-01T06:26:21;98117.75;;;14.82;61.56
11912;BME280;6016;41.928;25.556;2023-04-01T06:28:59;98105.09;;;14.84;62.65
11912;BME280;6016;41.928;25.556;2023-04-01T06:31:48;98106.41;;;14.95;62.82
11912;BME280;6016;41.928;25.556;2023-04-01T06:34:44;98089.66;;;14.94;63.06
11912;BME280;6016;41.928;25.556;2023-04-01T06:37:25;98074.09;;;14.91;61.89
11912;BME280;6016;41.928;25.556;2023-04-01T06:40:05;98085.88;;;15.10;61.96
11912;BME280;6016;41.928;25.556;2023-04-01T06:42:49;98081.47;;;14.96;61.54
11912;BME280;6016;41.928;25.556;2023-04-01T06:45:28;98071.81;;;15.16;61.60
11912;BME280;6016;41.928;25.556;2023-04-01T06:48:13;98058.78;;;15.28;61.72
11912;BME280;6016;41.928;25.556;2023-04-01T06:50:52;98006.19;;;15.10;62.09
11912;BME280;6016;41.928;25.556;2023-04-01T06:53:25;97966.34;;;15.10;61.27
11912;BME280;6016;41.928;25.556;2023-04-01T06:56:00;97872.19;;;14.71;60.90
11912;BME280;6016;41.928;25.556;2023-04-01T06:58:33;98049.63;;;15.86;61.00
11912;BME280;6016;41.928;25.556;2023-04-01T07:01:02;98063.19;;;15.92;60.70
11912;BME280;6016;41.928;25.556;2023-04-01T07:03:32;98045.94;;;15.81;61.07
11912;BME280;6016;41.928;25.556;2023-04-01T07:06:03;98042.66;;;15.79;60.21
11912;BME280;6016;41.928;25.556;2023-04-01T07:08:35;98025.06;;;15.78;60.51
11912;BME280;6016;41.928;25.556;2023-04-01T07:11:05;98049.91;;;16.05;61.21
11912;BME280;6016;41.928;25.556;2023-04-01T07:13:36;98047.28;;;16.19;61.29
11912;BME280;6016;41.928;25.556;2023-04-01T07:16:12;98046.06;;;16.41;60.59
11912;BME280;6016;41.928;25.556;2023-04-01T07:18:44;98017.59;;;16.82;59.55
11912;BME280;6016;41.928;25.556;2023-04-01T07:21:22;97872.28;;;16.27;59.12
11912;BME280;6016;41.928;25.556;2023-04-01T07:23:50;97881.50;;;17.04;57.66
11912;BME280;6016;41.928;25.556;2023-04-01T07:26:23;98016.66;;;18.20;56.74
11912;BME280;6016;41.928;25.556;2023-04-01T07:28:51;98015.66;;;18.14;56.57
11912;BME280;6016;41.928;25.556;2023-04-01T07:31:37;97986.31;;;17.76;57.76
11912;BME280;6016;41.928;25.556;2023-04-01T07:34:10;98013.97;;;17.42;60.83
11912;BME280;6016;41.928;25.556;2023-04-01T07:36:43;97883.75;;;16.28;63.19
11912;BME280;6016;41.928;25.556;2023-04-01T07:39:21;97992.38;;;17.05;64.30
11912;BME280;6016;41.928;25.556;2023-04-01T07:41:59;97901.28;;;16.63;63.83
11912;BME280;6016;41.928;25.556;2023-04-01T07:44:33;97970.84;;;17.13;64.05
11912;BME280;6016;41.928;25.556;2023-04-01T07:47:17;97969.66;;;17.48;62.82
11912;BME280;6016;41.928;25.556;2023-04-01T07:49:55;97903.03;;;17.74;60.73
11912;BME280;6016;41.928;25.556;2023-04-01T07:52:31;97975.25;;;18.80;59.51
11912;BME280;6016;41.928;25.556;2023-04-01T07:55:04;97974.06;;;18.76;58.83
11912;BME280;6016;41.928;25.556;2023-04-01T07:57:38;97935.72;;;19.08;58.22
11912;BME280;6016;41.928;25.556;2023-04-01T08:00:14;97874.47;;;18.88;57.13
11912;BME280;6016;41.928;25.556;2023-04-01T08:02:58;97903.88;;;19.06;54.58
11912;BME280;6016;41.928;25.556;2023-04-01T08:05:34;97953.47;;;19.02;58.03
11912;BME280;6016;41.928;25.556;2023-04-01T08:08:11;97955.91;;;19.22;57.29
11912;BME280;6016;41.928;25.556;2023-04-01T08:10:47;97943.66;;;18.77;57.54
11912;BME280;6016;41.928;25.556;2023-04-01T08:13:27;97912.81;;;18.37;59.40
11912;BME280;6016;41.928;25.556;2023-04-01T08:16:05;97803.75;;;17.97;58.14
11912;BME280;6016;41.928;25.556;2023-04-01T08:18:41;97912.78;;;18.81;58.91
11912;BME280;6016;41.928;25.556;2023-04-01T08:21:13;97913.00;;;18.98;54.78
11912;BME280;6016;41.928;25.556;2023-04-01T08:23:43;97899.63;;;18.80;58.09
11912;BME280;6016;41.928;25.556;2023-04-01T08:26:15;97900.66;;;18.41;58.94
11912;BME280;6016;41.928;25.556;2023-04-01T08:28:50;97909.06;;;18.20;60.40
11912;BME280;6016;41.928;25.556;2023-04-01T08:31:24;97907.16;;;18.27;58.54
11912;BME280;6016;41.928;25.556;2023-04-01T08:33:51;97898.56;;;18.25;59.50
11912;BME280;6016;41.928;25.556;2023-04-01T08:36:22;97865.72;;;17.99;58.91
11912;BME280;6016;41.928;25.556;2023-04-01T08:38:54;97891.56;;;17.73;60.25
11912;BME280;6016;41.928;25.556;2023-04-01T08:41:37;97874.25;;;17.82;60.33
11912;BME280;6016;41.928;25.556;2023-04-01T08:44:31;97910.28;;;17.92;60.38
11912;BME280;6016;41.928;25.556;2023-04-01T08:47:18;97832.31;;;17.39;58.21
11912;BME280;6016;41.928;25.556;2023-04-01T08:50:26;97899.16;;;17.69;61.13
11912;BME280;6016;41.928;25.556;2023-04-01T08:53:03;97847.91;;;17.35;61.13
11912;BME280;6016;41.928;25.556;2023-04-01T08:55:46;97809.66;;;17.23;60.94
11912;BME280;6016;41.928;25.556;2023-04-01T08:58:43;97843.81;;;17.39;59.10
11912;BME280;6016;41.928;25.556;2023-04-01T09:01:34;97853.38;;;17.47;60.99
11912;BME280;6016;41.928;25.556;2023-04-01T09:04:22;97672.09;;;16.32;62.85
11912;BME280;6016;41.928;25.556;2023-04-01T09:07:00;97891.50;;;17.80;61.03
11912;BME280;6016;41.928;25.556;2023-04-01T09:12:48;97798.78;;;17.50;57.29
11912;BME280;6016;41.928;25.556;2023-04-01T09:15:42;97844.25;;;17.87;61.32
11912;BME280;6016;41.928;25.556;2023-04-01T09:18:30;97830.78;;;18.00;60.46
11912;BME280;6016;41.928;25.556;2023-04-01T09:21:24;97780.53;;;17.97;59.92
11912;BME280;6016;41.928;25.556;2023-04-01T09:27:10;97713.69;;;17.92;58.49
11912;BME280;6016;41.928;25.556;2023-04-01T09:30:03;97809.28;;;18.58;57.35
11912;BME280;6016;41.928;25.556;2023-04-01T09:32:39;97811.88;;;18.65;57.65
11912;BME280;6016;41.928;25.556;2023-04-01T09:35:21;97801.63;;;18.62;57.13
11912;BME280;6016;41.928;25.556;2023-04-01T09:37:53;97543.22;;;17.16;57.69
11912;BME280;6016;41.928;25.556;2023-04-01T09:40:26;97651.00;;;17.83;57.21
11912;BME280;6016;41.928;25.556;2023-04-01T09:43:21;97789.03;;;18.81;57.06
11912;BME280;6016;41.928;25.556;2023-04-01T09:45:58;97791.53;;;18.64;56.18
11912;BME280;6016;41.928;25.556;2023-04-01T09:48:51;97785.06;;;18.72;57.24
11912;BME280;6016;41.928;25.556;2023-04-01T09:51:33;97592.47;;;17.69;55.66
11912;BME280;6016;41.928;25.556;2023-04-01T09:54:32;97755.94;;;18.82;55.31
11912;BME280;6016;41.928;25.556;2023-04-01T10:00:16;97663.19;;;18.28;54.54
11912;BME280;6016;41.928;25.556;2023-04-01T10:03:10;97724.16;;;18.62;54.44
11912;BME280;6016;41.928;25.556;2023-04-01T10:06:02;97739.56;;;18.78;54.15
11912;BME280;6016;41.928;25.556;2023-04-01T10:09:03;97732.53;;;18.65;54.49
11912;BME280;6016;41.928;25.556;2023-04-01T10:12:14;97722.94;;;18.76;53.82
11912;BME280;6016;41.928;25.556;2023-04-01T10:18:19;97713.03;;;18.65;54.86
11912;BME280;6016;41.928;25.556;2023-04-01T10:21:15;97622.66;;;18.19;54.07
11912;BME280;6016;41.928;25.556;2023-04-01T10:24:08;97716.41;;;18.72;53.03
11912;BME280;6016;41.928;25.556;2023-04-01T10:26:52;97658.72;;;18.40;54.30
11912;BME280;6016;41.928;25.556;2023-04-01T10:29:38;97695.16;;;18.65;53.90
11912;BME280;6016;41.928;25.556;2023-04-01T10:38:55;97698.50;;;18.61;55.18
11912;BME280;6016;41.928;25.556;2023-04-01T10:45:20;97701.91;;;18.68;53.91
11912;BME280;6016;41.928;25.556;2023-04-01T10:48:18;97697.84;;;19.32;53.19
11912;BME280;6016;41.928;25.556;2023-04-01T10:51:04;97692.53;;;19.67;52.73
11912;BME280;6016;41.928;25.556;2023-04-01T10:53:44;97717.50;;;19.85;52.03
11912;BME280;6016;41.928;25.556;2023-04-01T10:56:33;97696.69;;;19.63;51.69
11912;BME280;6016;41.928;25.556;2023-04-01T10:59:32;97689.63;;;19.57;52.43
11912;BME280;6016;41.928;25.556;2023-04-01T11:02:18;97634.19;;;19.17;52.51
11912;BME280;6016;41.928;25.556;2023-04-01T11:11:22;97698.97;;;19.00;54.32
11912;BME280;6016;41.928;25.556;2023-04-01T11:14:30;97676.63;;;18.94;54.37
11912;BME280;6016;41.928;25.556;2023-04-01T11:17:22;97630.78;;;18.55;55.10
11912;BME280;6016;41.928;25.556;2023-04-01T11:20:18;97651.97;;;18.38;54.45
11912;BME280;6016;41.928;25.556;2023-04-01T11:25:50;97674.19;;;18.50;53.73
11912;BME280;6016;41.928;25.556;2023-04-01T11:31:43;97680.63;;;18.31;52.63
11912;BME280;6016;41.928;25.556;2023-04-01T11:34:22;97652.16;;;18.24;53.15
11912;BME280;6016;41.928;25.556;2023-04-01T11:37:03;97613.50;;;17.96;52.89
11912;BME280;6016;41.928;25.556;2023-04-01T11:39:37;97637.50;;;18.15;53.17
11912;BME280;6016;41.928;25.556;2023-04-01T11:42:17;97631.50;;;18.01;54.50
11912;BME280;6016;41.928;25.556;2023-04-01T11:44:55;97588.59;;;17.84;53.47
11912;BME280;6016;41.928;25.556;2023-04-01T11:47:45;97626.97;;;18.02;53.95
11912;BME280;6016;41.928;25.556;2023-04-01T11:50:22;97562.47;;;17.55;54.15
11912;BME280;6016;41.928;25.556;2023-04-01T11:53:05;97634.47;;;17.93;54.24
11912;BME280;6016;41.928;25.556;2023-04-01T11:55:47;97574.97;;;17.74;55.26
11912;BME280;6016;41.928;25.556;2023-04-01T11:58:30;97622.53;;;17.95;54.78
11912;BME280;6016;41.928;25.556;2023-04-01T12:01:20;97608.38;;;17.95;55.34
11912;BME280;6016;41.928;25.556;2023-04-01T12:04:16;97525.47;;;17.47;55.28
11912;BME280;6016;41.928;25.556;2023-04-01T12:06:52;97590.47;;;17.83;56.36
11912;BME280;6016;41.928;25.556;2023-04-01T12:09:25;97595.13;;;18.07;55.63
11912;BME280;6016;41.928;25.556;2023-04-01T12:12:07;97578.94;;;18.20;56.17
11912;BME280;6016;41.928;25.556;2023-04-01T12:14:43;97477.78;;;18.00;55.05
11912;BME280;6016;41.928;25.556;2023-04-01T12:17:25;97561.63;;;18.77;54.10
11912;BME280;6016;41.928;25.556;2023-04-01T12:19:58;97545.13;;;18.80;53.40
11912;BME280;6016;41.928;25.556;2023-04-01T12:22:39;97331.94;;;17.15;54.46
11912;BME280;6016;41.928;25.556;2023-04-01T12:25:27;97551.59;;;18.61;53.93
11912;BME280;6016;41.928;25.556;2023-04-01T12:28:06;97505.28;;;18.79;52.89
11912;BME280;6016;41.928;25.556;2023-04-01T12:30:47;97553.47;;;19.44;51.68
11912;BME280;6016;41.928;25.556;2023-04-01T12:36:35;97520.72;;;20.23;50.27
11912;BME280;6016;41.928;25.556;2023-04-01T12:39:22;97559.84;;;20.42;48.27
11912;BME280;6016;41.928;25.556;2023-04-01T12:42:05;97557.31;;;20.35;48.34
11912;BME280;6016;41.928;25.556;2023-04-01T12:44:48;97487.03;;;20.28;47.83
11912;BME280;6016;41.928;25.556;2023-04-01T12:50:31;97483.47;;;20.22;49.18
11912;BME280;6016;41.928;25.556;2023-04-01T12:53:22;97505.31;;;20.48;48.12
11912;BME280;6016;41.928;25.556;2023-04-01T12:55:52;97497.00;;;20.66;47.27
11912;BME280;6016;41.928;25.556;2023-04-01T12:58:52;97502.94;;;20.69;47.39
11912;BME280;6016;41.928;25.556;2023-04-01T13:01:46;97380.34;;;19.85;46.79
11912;BME280;6016;41.928;25.556;2023-04-01T13:07:41;97480.13;;;20.83;47.03
11912;BME280;6016;41.928;25.556;2023-04-01T13:10:25;97483.63;;;20.84;46.75
11912;BME280;6016;41.928;25.556;2023-04-01T13:13:07;97437.94;;;20.39;47.53
11912;BME280;6016;41.928;25.556;2023-04-01T13:15:37;97475.63;;;20.72;47.52
11912;BME280;6016;41.928;25.556;2023-04-01T13:18:17;97461.97;;;20.51;48.38
11912;BME280;6016;41.928;25.556;2023-04-01T13:20:53;97335.91;;;19.84;48.07
11912;BME280;6016;41.928;25.556;2023-04-01T13:23:31;97394.84;;;19.89;48.11
11912;BME280;6016;41.928;25.556;2023-04-01T13:26:08;97437.06;;;19.99;48.79
11912;BME280;6016;41.928;25.556;2023-04-01T13:28:40;97286.53;;;19.23;49.22
11912;BME280;6016;41.928;25.556;2023-04-01T13:31:22;97384.66;;;20.03;48.84
11912;BME280;6016;41.928;25.556;2023-04-01T13:34:01;97444.69;;;20.24;50.04
11912;BME280;6016;41.928;25.556;2023-04-01T13:36:39;97431.28;;;20.24;49.68
11912;BME280;6016;41.928;25.556;2023-04-01T13:39:38;97438.44;;;20.19;49.04
11912;BME280;6016;41.928;25.556;2023-04-01T13:42:18;97358.03;;;19.79;49.45
11912;BME280;6016;41.928;25.556;2023-04-01T13:44:50;97439.44;;;20.13;50.48
11912;BME280;6016;41.928;25.556;2023-04-01T13:47:36;97441.28;;;20.12;50.12
11912;BME280;6016;41.928;25.556;2023-04-01T13:53:38;97396.97;;;20.21;49.20
11912;BME280;6016;41.928;25.556;2023-04-01T13:56:16;97408.81;;;19.91;50.31
11912;BME280;6016;41.928;25.556;2023-04-01T14:01:54;97419.78;;;20.07;50.41
11912;BME280;6016;41.928;25.556;2023-04-01T14:04:53;97393.59;;;20.09;50.15
11912;BME280;6016;41.928;25.556;2023-04-01T14:07:36;97413.34;;;19.91;50.98
11912;BME280;6016;41.928;25.556;2023-04-01T14:10:12;97434.25;;;19.77;51.24
11912;BME280;6016;41.928;25.556;2023-04-01T14:12:49;97385.63;;;19.80;50.64
11912;BME280;6016;41.928;25.556;2023-04-01T14:15:29;97405.41;;;19.96;51.24
11912;BME280;6016;41.928;25.556;2023-04-01T14:18:19;97405.13;;;19.92;50.75
11912;BME280;6016;41.928;25.556;2023-04-01T14:21:03;97398.78;;;19.99;50.36
11912;BME280;6016;41.928;25.556;2023-04-01T14:23:46;97267.38;;;18.86;50.86
11912;BME280;6016;41.928;25.556;2023-04-01T14:26:26;97407.91;;;19.86;50.64
11912;BME280;6016;41.928;25.556;2023-04-01T14:29:04;97384.59;;;19.52;50.92
11912;BME280;6016;41.928;25.556;2023-04-01T14:31:44;97331.53;;;19.15;51.13
11912;BME280;6016;41.928;25.556;2023-04-01T14:34:23;97309.44;;;18.49;51.90
11912;BME280;6016;41.928;25.556;2023-04-01T14:40:20;97535.47;;;18.67;53.85